Subzero — VNZ2420 — position and weather

sailwx.info

Track history (hours):
 
Tides and Currents Weather Stations Pressure Air Temp Water Temp Dewpoint Dewpoint Depression Visibility Wind Speed Wind Dir Waves Ship Positions

Subzero

Last reported at 2018-Jan-10 02:31 UTC. Time now 2018-Jan-22 06:45 UTC.
Position S 32°42' E 152°03'.
Warning: this ship's position is 12 days out of date.

Length 12 m.

Type: Sailing vessel. MMSI: 503331900.

Date/timePositionNaut miles runAvg speedWind from/ knotsBaromVisibWave heightAir tempDewpointWater temp
2018-Jan-10 02:31S 32°42' E 152°03'0 1.6
2018-Jan-10 02:30S 32°42' E 152°03'1 0.3
2018-Jan-09 23:34S 32°43' E 152°04'0 0.0
2018-Jan-09 23:28S 32°43' E 152°04'  
2018-Jan-06 05:45S 32°43' E 152°04'0 0.8
2018-Jan-06 05:31S 32°43' E 152°03'1 1.7
2018-Jan-06 05:00S 32°42' E 152°04'2 3.8
2018-Jan-06 04:30S 32°42' E 152°06'1 2.1
2018-Jan-06 04:01S 32°42' E 152°05'0 0.6
2018-Jan-06 03:31S 32°43' E 152°05'2 3.4
2018-Jan-06 03:01S 32°42' E 152°07'2 3.2
2018-Jan-06 02:31S 32°43' E 152°05'2 3.0
2018-Jan-06 02:01S 32°42' E 152°04'1 1.4
2018-Jan-06 01:30S 32°42' E 152°03'  
2018-Jan-03 04:44S 32°43' E 152°04'0 1.7
2018-Jan-03 04:30S 32°43' E 152°03'2 4.7
2018-Jan-03 04:00S 32°42' E 152°06'2 3.3
2018-Jan-03 03:30S 32°43' E 152°05'2 4.1
2018-Jan-03 03:00S 32°42' E 152°04'1 1.7
2018-Jan-03 02:30S 32°42' E 152°03'  
Track history (hours):
 
Tides and Currents Weather Stations Pressure Air Temp Water Temp Dewpoint Dewpoint Depression Visibility Wind Speed Wind Dir Waves Ship Positions

Subzero

Last reported at 2018-Jan-10 02:31 UTC. Time now 2018-Jan-22 06:45 UTC.
Position S 32°42' E 152°03'.
Warning: this ship's position is 12 days out of date.

Length 12 m.

Type: Sailing vessel. MMSI: 503331900.

Date/timePositionNaut miles runAvg speedWind from/ knotsBaromVisibWave heightAir tempDewpointWater temp
2018-Jan-10 02:31S 32°42' E 152°03'0 1.6
2018-Jan-10 02:30S 32°42' E 152°03'1 0.3
2018-Jan-09 23:34S 32°43' E 152°04'0 0.0
2018-Jan-09 23:28S 32°43' E 152°04'  
2018-Jan-06 05:45S 32°43' E 152°04'0 0.8
2018-Jan-06 05:31S 32°43' E 152°03'1 1.7
2018-Jan-06 05:00S 32°42' E 152°04'2 3.8
2018-Jan-06 04:30S 32°42' E 152°06'1 2.1
2018-Jan-06 04:01S 32°42' E 152°05'0 0.6
2018-Jan-06 03:31S 32°43' E 152°05'2 3.4
2018-Jan-06 03:01S 32°42' E 152°07'2 3.2
2018-Jan-06 02:31S 32°43' E 152°05'2 3.0
2018-Jan-06 02:01S 32°42' E 152°04'1 1.4
2018-Jan-06 01:30S 32°42' E 152°03'  
2018-Jan-03 04:44S 32°43' E 152°04'0 1.7
2018-Jan-03 04:30S 32°43' E 152°03'2 4.7
2018-Jan-03 04:00S 32°42' E 152°06'2 3.3
2018-Jan-03 03:30S 32°43' E 152°05'2 4.1
2018-Jan-03 03:00S 32°42' E 152°04'1 1.7
2018-Jan-03 02:30S 32°42' E 152°03'  

Dump ship's entire track history